Time;durP1;ratioP1;P1;durP2;ratioP2;P2;SDS_P1;SDS_P2;PMS_P1;PMS_P2;Temp;Humidity;BMP_temperature;BMP_pressure;BME280_temperature;BME280_humidity;BME280_pressure;Samples;Min_cycle;Max_cycle;Signal;HPM_P1;HPM_P2
2023/11/27 00:00:01;;;;;;;12.95;4.95;;;4.60;99.90;;;;;;5002521;28;20069;-85
2023/11/27 00:02:26;;;;;;;5.50;2.92;;;4.60;99.90;;;;;;5000684;28;20045;-83
2023/11/27 00:04:52;;;;;;;9.35;4.10;;;4.60;99.90;;;;;;4997448;28;20045;-83
2023/11/27 00:07:18;;;;;;;5.00;2.30;;;4.60;99.90;;;;;;4998589;28;20045;-85
2023/11/27 00:09:43;;;;;;;8.13;3.80;;;4.60;99.90;;;;;;4998671;28;20037;-83
2023/11/27 00:12:09;;;;;;;12.07;3.65;;;4.60;99.90;;;;;;4997592;28;20485;-84
2023/11/27 00:14:34;;;;;;;12.25;4.72;;;4.50;99.90;;;;;;4968435;28;20129;-86
2023/11/27 00:17:00;;;;;;;4.18;1.63;;;4.50;99.90;;;;;;4999448;28;20068;-87
2023/11/27 00:19:25;;;;;;;3.80;2.28;;;4.60;99.90;;;;;;4982459;28;20062;-84
2023/11/27 00:21:51;;;;;;;8.43;4.53;;;4.50;99.90;;;;;;4994921;28;20046;-86
2023/11/27 00:24:17;;;;;;;6.80;3.25;;;4.60;99.90;;;;;;4960858;28;20046;-84
2023/11/27 00:26:43;;;;;;;7.72;3.38;;;4.60;99.90;;;;;;4968715;28;20060;-84
2023/11/27 00:29:09;;;;;;;8.93;4.18;;;4.60;99.90;;;;;;4979125;28;20047;-85
2023/11/27 00:31:34;;;;;;;5.82;2.42;;;4.60;99.90;;;;;;4995065;28;20488;-84
2023/11/27 00:34:00;;;;;;;2.42;1.65;;;4.60;99.90;;;;;;4999635;28;20049;-85
2023/11/27 00:36:25;;;;;;;10.02;2.40;;;4.60;99.90;;;;;;4993524;28;20038;-85
2023/11/27 00:38:51;;;;;;;9.63;3.00;;;4.60;99.90;;;;;;4995544;28;20072;-86
2023/11/27 00:41:17;;;;;;;4.53;2.30;;;4.60;99.90;;;;;;4998859;28;20517;-84
2023/11/27 00:43:46;;;;;;;8.40;4.20;;;4.60;99.90;;;;;;4982015;28;20035;-86
2023/11/27 00:46:12;;;;;;;9.32;4.18;;;4.60;99.90;;;;;;4984536;28;20033;-86
2023/11/27 00:48:38;;;;;;;3.53;2.17;;;4.60;99.90;;;;;;4989715;28;20058;-85
2023/11/27 00:51:07;;;;;;;9.68;4.10;;;4.50;99.90;;;;;;4998543;28;20068;-85
2023/11/27 00:53:33;;;;;;;3.58;2.08;;;4.60;99.90;;;;;;4971877;28;20096;-85
2023/11/27 00:55:58;;;;;;;8.23;3.97;;;4.60;99.90;;;;;;5003955;28;20460;-85
2023/11/27 00:58:24;;;;;;;4.15;2.20;;;4.90;99.90;;;;;;4996713;28;20544;-86
2023/11/27 01:00:53;;;;;;;6.28;2.30;;;4.60;99.90;;;;;;4998733;28;20124;-84
2023/11/27 01:03:18;;;;;;;6.18;2.70;;;4.50;99.90;;;;;;5000847;28;20092;-83
2023/11/27 01:05:44;;;;;;;8.05;3.72;;;4.60;99.90;;;;;;5000245;28;20034;-84
2023/11/27 01:08:12;;;;;;;11.90;3.25;;;4.50;99.90;;;;;;4986847;28;20130;-85
2023/11/27 01:10:38;;;;;;;3.78;2.15;;;4.50;99.90;;;;;;4968493;28;20093;-86
2023/11/27 01:13:04;;;;;;;7.80;2.90;;;4.50;99.90;;;;;;4991026;28;20481;-86
2023/11/27 01:15:30;;;;;;;3.75;1.67;;;4.50;99.90;;;;;;4998519;28;20049;-86
2023/11/27 01:17:56;;;;;;;11.07;4.50;;;4.50;99.90;;;;;;4999917;28;20053;-86
2023/11/27 01:20:22;;;;;;;10.27;2.95;;;4.50;99.90;;;;;;4999856;28;20032;-86
2023/11/27 01:22:47;;;;;;;1.90;1.17;;;4.50;99.90;;;;;;4986755;28;20034;-81
2023/11/27 01:25:13;;;;;;;5.82;2.75;;;4.50;99.90;;;;;;4997589;28;20493;-86
2023/11/27 01:27:38;;;;;;;8.38;3.95;;;4.50;99.90;;;;;;4987689;28;20073;-86
2023/11/27 01:30:05;;;;;;;6.38;2.22;;;4.50;99.90;;;;;;5004853;28;20030;-86
2023/11/27 01:32:31;;;;;;;9.82;4.45;;;4.40;99.90;;;;;;4987415;28;20112;-80
2023/11/27 01:34:56;;;;;;;4.63;2.38;;;4.40;99.90;;;;;;4975323;28;20112;-80
2023/11/27 01:37:22;;;;;;;5.28;2.22;;;4.40;99.90;;;;;;4979133;28;20410;-79
2023/11/27 01:39:48;;;;;;;8.20;2.45;;;4.40;99.90;;;;;;4981078;28;20034;-79
2023/11/27 01:42:13;;;;;;;9.05;3.42;;;4.40;99.90;;;;;;4986205;28;20121;-79
2023/11/27 01:44:39;;;;;;;5.20;3.25;;;4.40;99.90;;;;;;4961615;28;20054;-78
2023/11/27 01:47:04;;;;;;;4.18;1.25;;;4.40;99.90;;;;;;4982669;28;20534;-78
2023/11/27 01:49:33;;;;;;;4.72;3.05;;;4.30;99.90;;;;;;4989567;28;20056;-80
2023/11/27 01:51:59;;;;;;;6.68;3.60;;;4.30;99.90;;;;;;4977910;28;20038;-79
2023/11/27 01:54:25;;;;;;;10.38;3.45;;;4.40;99.90;;;;;;5000733;28;20056;-79
2023/11/27 01:56:51;;;;;;;9.35;3.88;;;4.40;99.90;;;;;;4996849;28;20049;-79
2023/11/27 01:59:17;;;;;;;7.13;3.70;;;4.30;99.90;;;;;;4992257;28;20482;-79
2023/11/27 02:01:43;;;;;;;12.05;4.60;;;4.30;99.90;;;;;;4993570;28;20041;-79
2023/11/27 02:04:08;;;;;;;8.85;4.68;;;4.30;99.90;;;;;;4981806;28;20095;-80
2023/11/27 02:06:34;;;;;;;3.45;3.00;;;4.30;99.90;;;;;;4999157;28;20034;-79
2023/11/27 02:08:59;;;;;;;6.63;3.28;;;4.30;99.90;;;;;;4997314;28;20046;-78
2023/11/27 02:11:25;;;;;;;10.00;4.57;;;4.30;99.90;;;;;;4979569;28;20041;-79
2023/11/27 02:13:51;;;;;;;5.22;2.45;;;4.40;99.90;;;;;;4984698;28;20038;-79
2023/11/27 02:16:17;;;;;;;4.97;2.55;;;4.30;99.90;;;;;;4984573;28;20038;-79
2023/11/27 02:18:43;;;;;;;7.97;4.25;;;4.30;99.90;;;;;;4985225;28;20019;-80
2023/11/27 02:21:09;;;;;;;13.40;5.93;;;4.30;99.90;;;;;;4980391;28;20030;-78
2023/11/27 02:23:35;;;;;;;5.63;2.75;;;4.30;99.90;;;;;;4987990;28;20039;-79
2023/11/27 02:26:01;;;;;;;5.97;3.60;;;4.30;99.90;;;;;;4998199;28;20362;-78
2023/11/27 02:28:26;;;;;;;10.77;6.10;;;4.30;99.90;;;;;;4996391;28;20030;-79
2023/11/27 02:30:52;;;;;;;8.85;4.28;;;4.20;99.90;;;;;;4983562;28;20027;-79
2023/11/27 02:33:17;;;;;;;9.73;4.10;;;4.20;99.90;;;;;;4998739;28;20025;-80
2023/11/27 02:35:43;;;;;;;4.53;3.17;;;4.20;99.90;;;;;;4981831;28;20034;-79
2023/11/27 02:38:08;;;;;;;10.35;4.45;;;4.20;99.90;;;;;;4979394;28;20559;-79
2023/11/27 02:40:35;;;;;;;10.18;4.70;;;4.20;99.90;;;;;;4997660;28;20033;-79
2023/11/27 02:43:03;;;;;;;10.75;5.50;;;4.20;99.90;;;;;;4999617;28;20421;-79
2023/11/27 02:45:29;;;;;;;8.00;4.50;;;4.20;99.90;;;;;;5005377;28;20626;-79
2023/11/27 02:47:55;;;;;;;13.13;5.97;;;4.20;99.90;;;;;;4977276;28;20058;-79
2023/11/27 02:50:22;;;;;;;8.90;5.95;;;4.10;99.90;;;;;;5000316;28;20514;-79
2023/11/27 02:52:48;;;;;;;12.68;5.00;;;4.20;99.90;;;;;;4988569;28;20093;-80
2023/11/27 02:55:14;;;;;;;9.95;5.97;;;4.20;99.90;;;;;;4979789;28;20038;-80
2023/11/27 02:57:39;;;;;;;6.78;3.10;;;4.10;99.90;;;;;;5000746;28;20034;-78
2023/11/27 03:00:05;;;;;;;10.35;4.70;;;4.10;99.90;;;;;;4987955;28;20034;-78
2023/11/27 03:02:32;;;;;;;7.63;3.63;;;4.10;99.90;;;;;;5001641;28;20342;-77
2023/11/27 03:04:58;;;;;;;6.82;3.22;;;4.10;99.90;;;;;;5002978;28;20042;-78
2023/11/27 03:07:23;;;;;;;7.30;2.92;;;4.20;99.90;;;;;;4988242;28;20100;-78
2023/11/27 03:09:49;;;;;;;10.45;5.43;;;4.10;99.90;;;;;;4985241;28;20374;-82
2023/11/27 03:12:14;;;;;;;9.95;5.50;;;4.10;99.90;;;;;;5002202;28;20037;-78
2023/11/27 03:14:40;;;;;;;11.85;5.93;;;4.10;99.90;;;;;;5000756;28;20034;-78
2023/11/27 03:17:06;;;;;;;11.82;5.88;;;4.10;99.90;;;;;;5000344;28;20038;-79
2023/11/27 03:19:31;;;;;;;12.00;6.20;;;4.10;99.90;;;;;;4987041;28;20039;-79
2023/11/27 03:21:57;;;;;;;8.45;3.92;;;4.10;99.90;;;;;;5002024;28;20492;-78
2023/11/27 03:24:22;;;;;;;6.10;3.78;;;4.20;99.90;;;;;;5000230;28;20056;-78
2023/11/27 03:26:48;;;;;;;7.55;3.42;;;4.10;99.90;;;;;;5001417;28;20076;-78
2023/11/27 03:29:13;;;;;;;9.32;5.15;;;4.10;99.90;;;;;;4986209;28;20051;-78
2023/11/27 03:31:39;;;;;;;8.10;2.83;;;4.10;99.90;;;;;;4961617;28;20042;-80
2023/11/27 03:34:05;;;;;;;7.28;3.85;;;4.10;99.90;;;;;;4973715;28;20708;-78
2023/11/27 03:36:30;;;;;;;9.65;5.10;;;4.10;99.90;;;;;;4984378;28;20035;-78
2023/11/27 03:38:56;;;;;;;5.88;3.85;;;4.10;99.90;;;;;;4981238;28;20087;-77
2023/11/27 03:41:21;;;;;;;8.63;4.72;;;4.10;99.90;;;;;;4981312;28;20077;-78
2023/11/27 03:43:47;;;;;;;10.13;3.60;;;4.00;99.90;;;;;;4990373;28;20127;-79
2023/11/27 03:46:13;;;;;;;1.33;1.02;;;4.00;99.90;;;;;;4965924;28;20781;-79
2023/11/27 03:48:39;;;;;;;8.05;2.75;;;4.10;99.90;;;;;;4988423;28;20034;-77
2023/11/27 03:51:06;;;;;;;12.40;4.78;;;4.10;99.90;;;;;;4986288;28;20443;-79
2023/11/27 03:53:31;;;;;;;11.43;5.30;;;4.10;99.90;;;;;;4972154;28;20133;-80
2023/11/27 03:55:57;;;;;;;8.43;5.47;;;4.10;99.90;;;;;;4965925;28;20127;-78
2023/11/27 03:58:22;;;;;;;9.15;3.75;;;4.10;99.90;;;;;;4985675;28;20042;-78
2023/11/27 04:00:48;;;;;;;10.80;5.47;;;4.00;99.90;;;;;;4970986;28;20170;-78
2023/11/27 04:03:14;;;;;;;15.90;6.00;;;4.10;99.90;;;;;;4972149;28;20069;-78
2023/11/27 04:05:40;;;;;;;10.88;5.15;;;4.10;99.90;;;;;;4966949;28;20070;-78
2023/11/27 04:08:06;;;;;;;8.02;4.30;;;4.00;99.90;;;;;;5006651;28;20038;-77
2023/11/27 04:10:32;;;;;;;14.05;6.03;;;4.10;99.90;;;;;;4963173;28;20481;-78
2023/11/27 04:12:58;;;;;;;11.02;7.13;;;4.10;99.90;;;;;;4971612;28;20083;-78
2023/11/27 04:15:23;;;;;;;13.43;7.05;;;4.00;99.90;;;;;;4982913;28;20030;-78
2023/11/27 04:17:49;;;;;;;13.35;5.93;;;4.10;99.90;;;;;;4997141;28;20148;-78
2023/11/27 04:20:16;;;;;;;15.30;5.88;;;4.00;99.90;;;;;;4981050;28;20348;-78
2023/11/27 04:22:42;;;;;;;17.58;6.85;;;4.00;99.90;;;;;;4985834;28;20561;-80
2023/11/27 04:25:08;;;;;;;12.40;4.85;;;4.10;99.90;;;;;;4984840;28;20405;-79
2023/11/27 04:27:34;;;;;;;7.85;3.38;;;4.00;99.90;;;;;;4988186;28;20038;-78
2023/11/27 04:30:00;;;;;;;8.18;4.43;;;4.00;99.90;;;;;;4986580;28;20045;-80
2023/11/27 04:32:25;;;;;;;7.30;5.57;;;4.00;99.90;;;;;;4996112;28;21017;-78
2023/11/27 04:34:51;;;;;;;12.00;6.63;;;4.00;99.90;;;;;;4995749;28;20623;-79
2023/11/27 04:37:17;;;;;;;14.05;8.07;;;4.00;99.90;;;;;;4997743;28;20041;-79
2023/11/27 04:39:42;;;;;;;10.45;6.63;;;4.00;99.90;;;;;;4986477;28;20421;-78
2023/11/27 04:42:11;;;;;;;10.70;4.53;;;4.00;99.90;;;;;;5001803;28;20031;-79
2023/11/27 04:44:36;;;;;;;11.13;5.88;;;4.00;99.90;;;;;;5004391;28;20042;-78
2023/11/27 04:47:03;;;;;;;10.40;6.65;;;4.00;99.90;;;;;;4975678;28;20601;-78
2023/11/27 04:49:28;;;;;;;8.20;4.60;;;4.00;99.90;;;;;;4996887;28;20073;-78
2023/11/27 04:51:54;;;;;;;14.45;7.05;;;4.00;99.90;;;;;;5010592;28;20426;-79
2023/11/27 04:54:20;;;;;;;9.90;5.13;;;3.90;99.90;;;;;;4969927;28;20036;-80
2023/11/27 04:56:45;;;;;;;9.52;6.88;;;4.00;99.90;;;;;;4985273;28;20583;-79
2023/11/27 04:59:11;;;;;;;13.15;6.30;;;4.00;99.90;;;;;;4999599;28;20537;-78
2023/11/27 05:01:36;;;;;;;12.38;5.00;;;4.00;99.90;;;;;;4983578;28;20033;-79
2023/11/27 05:04:03;;;;;;;16.65;7.35;;;4.00;99.90;;;;;;5002931;28;20041;-85
2023/11/27 05:06:29;;;;;;;8.25;4.28;;;4.00;99.90;;;;;;4998111;28;20113;-84
2023/11/27 05:08:54;;;;;;;9.50;6.22;;;4.00;99.90;;;;;;5003943;28;20053;-84
2023/11/27 05:11:20;;;;;;;9.57;5.97;;;4.00;99.90;;;;;;5004366;28;20038;-83
2023/11/27 05:13:47;;;;;;;8.60;5.63;;;4.00;99.90;;;;;;5005090;28;20034;-84
2023/11/27 05:16:14;;;;;;;10.95;5.03;;;4.00;99.90;;;;;;4990740;28;20026;-84
2023/11/27 05:18:39;;;;;;;13.32;7.10;;;3.90;99.90;;;;;;4990064;28;20022;-84
2023/11/27 05:21:05;;;;;;;9.18;6.63;;;4.00;99.90;;;;;;5007579;28;20038;-84
2023/11/27 05:23:32;;;;;;;10.73;6.93;;;4.00;99.90;;;;;;5000658;28;20124;-84
2023/11/27 05:25:57;;;;;;;12.77;7.72;;;3.90;99.90;;;;;;5001989;28;20524;-84
2023/11/27 05:28:23;;;;;;;11.35;5.88;;;3.90;99.90;;;;;;4986000;28;20030;-83
2023/11/27 05:30:49;;;;;;;13.80;7.57;;;3.90;99.90;;;;;;5000729;28;20042;-83
2023/11/27 05:33:16;;;;;;;10.82;7.15;;;3.90;99.90;;;;;;5000416;28;20059;-84
2023/11/27 05:35:41;;;;;;;10.10;5.75;;;3.90;99.90;;;;;;5002274;28;20042;-83
2023/11/27 05:38:07;;;;;;;13.50;6.50;;;3.90;99.90;;;;;;5000935;28;20176;-85
2023/11/27 05:40:35;;;;;;;10.57;6.28;;;3.90;99.90;;;;;;5003228;28;20478;-84
2023/11/27 05:43:05;;;;;;;12.52;7.70;;;3.90;99.90;;;;;;4987011;28;20030;-84
2023/11/27 05:45:30;;;;;;;14.23;6.10;;;3.90;99.90;;;;;;4998957;28;20149;-85
2023/11/27 05:47:56;;;;;;;11.57;7.47;;;3.90;99.90;;;;;;4986273;28;20117;-85
2023/11/27 05:50:22;;;;;;;11.95;6.97;;;3.90;99.90;;;;;;4986163;28;20053;-84
2023/11/27 05:52:48;;;;;;;8.60;4.70;;;3.90;99.90;;;;;;4998028;28;20405;-85
2023/11/27 05:55:14;;;;;;;14.38;6.65;;;3.90;99.90;;;;;;4984730;28;20030;-84
2023/11/27 05:57:39;;;;;;;12.10;5.72;;;3.90;99.90;;;;;;5001114;28;20120;-83
2023/11/27 06:00:06;;;;;;;11.88;6.85;;;3.90;99.90;;;;;;4984500;28;20030;-85
2023/11/27 06:02:31;;;;;;;10.93;6.00;;;3.80;99.90;;;;;;4968109;28;20041;-83
2023/11/27 06:04:57;;;;;;;8.65;5.57;;;3.80;99.90;;;;;;4987706;28;20677;-85
2023/11/27 06:07:23;;;;;;;15.77;7.25;;;3.90;99.90;;;;;;5000085;28;20493;-84
2023/11/27 06:09:48;;;;;;;7.75;4.32;;;3.80;99.90;;;;;;5000953;28;20045;-85
2023/11/27 06:12:14;;;;;;;10.40;6.20;;;3.80;99.90;;;;;;4999481;28;20030;-84
2023/11/27 06:14:40;;;;;;;14.60;6.80;;;3.80;99.90;;;;;;4997927;28;20048;-85
2023/11/27 06:17:05;;;;;;;7.20;3.42;;;3.80;99.90;;;;;;4998631;28;20030;-84
2023/11/27 06:19:31;;;;;;;7.28;5.03;;;3.80;99.90;;;;;;5002739;28;20052;-86
2023/11/27 06:21:58;;;;;;;11.15;5.25;;;3.80;99.90;;;;;;4984038;28;20030;-86
2023/11/27 06:24:25;;;;;;;9.50;4.53;;;3.80;99.90;;;;;;4998645;28;20046;-85
2023/11/27 06:26:50;;;;;;;13.30;6.60;;;3.80;99.90;;;;;;5005799;28;20062;-86
2023/11/27 06:29:16;;;;;;;8.68;4.40;;;3.80;99.90;;;;;;4992889;28;20509;-84
2023/11/27 06:31:42;;;;;;;8.52;4.60;;;3.80;99.90;;;;;;4976281;28;20428;-82
2023/11/27 06:34:07;;;;;;;7.85;4.28;;;3.80;99.90;;;;;;4995232;28;20057;-85
2023/11/27 06:36:33;;;;;;;8.95;4.68;;;3.80;99.90;;;;;;4971020;28;20478;-86
2023/11/27 06:38:58;;;;;;;11.82;5.22;;;3.80;99.90;;;;;;5000184;28;20030;-86
2023/11/27 06:41:25;;;;;;;14.15;6.43;;;3.80;99.90;;;;;;4984212;28;20125;-85
2023/11/27 06:43:51;;;;;;;9.73;5.18;;;3.80;99.90;;;;;;4979866;28;20125;-85
2023/11/27 06:46:17;;;;;;;12.75;6.25;;;3.80;99.90;;;;;;4999229;28;20042;-85
2023/11/27 06:48:44;;;;;;;6.35;4.72;;;3.80;99.90;;;;;;4992763;28;20101;-86
2023/11/27 06:51:10;;;;;;;16.90;5.50;;;3.80;99.90;;;;;;4999973;28;20171;-85
2023/11/27 06:53:36;;;;;;;9.48;4.25;;;3.70;99.90;;;;;;5008013;28;20034;-81
2023/11/27 06:56:02;;;;;;;3.63;2.70;;;3.80;99.90;;;;;;4989849;28;20109;-85
2023/11/27 06:58:28;;;;;;;12.18;4.90;;;3.80;99.90;;;;;;4987957;28;20040;-84
2023/11/27 07:00:53;;;;;;;9.48;5.47;;;3.70;99.90;;;;;;4990618;28;20034;-83
2023/11/27 07:03:19;;;;;;;10.10;5.82;;;3.70;99.90;;;;;;4998849;28;20065;-83
2023/11/27 07:05:51;;;;;;;7.20;3.70;;;3.70;99.90;;;;;;4993242;28;20030;-84
2023/11/27 07:08:17;;;;;;;5.38;3.00;;;3.70;99.90;;;;;;4994522;28;20120;-84
2023/11/27 07:10:42;;;;;;;7.53;2.72;;;3.70;99.90;;;;;;4998059;28;20110;-83
2023/11/27 07:13:08;;;;;;;4.38;3.80;;;3.60;99.90;;;;;;5001304;28;20100;-82
2023/11/27 07:15:34;;;;;;;7.95;5.03;;;3.60;99.90;;;;;;4987985;28;20180;-85
2023/11/27 07:18:00;;;;;;;8.85;4.07;;;3.60;99.90;;;;;;5015932;28;20045;-84
2023/11/27 07:20:26;;;;;;;7.25;5.20;;;3.60;99.90;;;;;;4993012;28;20031;-85
2023/11/27 07:22:51;;;;;;;9.55;5.35;;;3.60;99.90;;;;;;4975184;28;20037;-84
2023/11/27 07:25:17;;;;;;;6.65;4.50;;;3.60;99.90;;;;;;4995984;28;20034;-84
2023/11/27 07:27:45;;;;;;;9.98;5.35;;;3.60;99.90;;;;;;4988262;28;20136;-84
2023/11/27 07:30:12;;;;;;;8.02;4.80;;;3.60;99.90;;;;;;4989989;28;20585;-85
2023/11/27 07:32:38;;;;;;;11.23;4.70;;;3.70;99.90;;;;;;5000736;28;20495;-85
2023/11/27 07:35:04;;;;;;;7.68;4.18;;;3.60;99.90;;;;;;4998707;28;20084;-84
2023/11/27 07:37:29;;;;;;;6.60;4.28;;;3.60;99.90;;;;;;4989692;28;20042;-82
2023/11/27 07:39:55;;;;;;;7.15;4.38;;;3.70;99.90;;;;;;4999921;28;20472;-84
2023/11/27 07:42:21;;;;;;;6.45;3.47;;;3.70;99.90;;;;;;4978866;28;20122;-81
2023/11/27 07:44:46;;;;;;;4.90;2.22;;;3.70;99.90;;;;;;4983788;28;20038;-82
2023/11/27 07:47:12;;;;;;;6.72;3.50;;;3.70;99.90;;;;;;4986472;28;20049;-81
2023/11/27 07:49:37;;;;;;;5.72;3.03;;;3.70;99.90;;;;;;4996204;28;20042;-85
2023/11/27 07:52:03;;;;;;;13.50;4.93;;;3.70;99.90;;;;;;4983846;28;20401;-87
2023/11/27 07:54:31;;;;;;;7.53;4.07;;;3.60;99.90;;;;;;4978334;28;20030;-87
2023/11/27 07:56:57;;;;;;;5.78;4.03;;;3.70;99.90;;;;;;4987552;28;20089;-84
2023/11/27 07:59:25;;;;;;;8.13;3.67;;;3.70;99.90;;;;;;4984292;28;20041;-84
2023/11/27 08:01:51;;;;;;;5.68;3.78;;;3.70;99.90;;;;;;5004088;28;20038;-86
2023/11/27 08:04:17;;;;;;;8.00;3.38;;;3.60;99.90;;;;;;4997159;28;20096;-85
2023/11/27 08:06:44;;;;;;;3.33;2.63;;;3.60;99.90;;;;;;4981000;28;20069;-85
2023/11/27 08:09:12;;;;;;;6.57;3.30;;;3.70;99.90;;;;;;5004664;28;20459;-82
2023/11/27 08:11:38;;;;;;;2.97;2.53;;;3.60;99.90;;;;;;5003895;28;20041;-86
2023/11/27 08:14:03;;;;;;;5.88;3.40;;;3.60;99.90;;;;;;4985112;28;20508;-86
2023/11/27 08:16:29;;;;;;;6.00;3.83;;;3.60;99.90;;;;;;4984188;28;20056;-86
2023/11/27 08:18:55;;;;;;;7.55;3.78;;;3.60;99.90;;;;;;4987010;28;20042;-85
2023/11/27 08:21:20;;;;;;;6.82;3.33;;;3.60;99.90;;;;;;4990520;28;20036;-83
2023/11/27 08:23:46;;;;;;;3.13;1.50;;;3.60;99.90;;;;;;4982398;28;20035;-84
2023/11/27 08:26:14;;;;;;;5.30;3.08;;;3.60;99.90;;;;;;5002212;28;20088;-86
2023/11/27 08:28:40;;;;;;;3.53;2.13;;;3.60;99.90;;;;;;4999345;28;20038;-83
2023/11/27 08:31:06;;;;;;;5.13;2.67;;;3.60;99.90;;;;;;4978510;28;20358;-87
2023/11/27 08:33:32;;;;;;;6.75;2.72;;;3.70;99.90;;;;;;4984642;28;20023;-87
2023/11/27 08:36:00;;;;;;;4.95;2.90;;;3.60;99.90;;;;;;4983072;28;20494;-83
2023/11/27 08:38:28;;;;;;;4.45;2.05;;;3.60;99.90;;;;;;4998261;28;20855;-83
2023/11/27 08:40:53;;;;;;;3.88;2.72;;;3.60;99.90;;;;;;4999437;28;20070;-83
2023/11/27 08:43:19;;;;;;;2.67;1.90;;;3.60;99.90;;;;;;4981229;28;20026;-83
2023/11/27 08:45:44;;;;;;;3.78;2.60;;;3.60;99.90;;;;;;4967967;28;20085;-83
2023/11/27 08:48:12;;;;;;;3.05;1.77;;;3.60;99.90;;;;;;4995872;28;20724;-80
2023/11/27 08:50:38;;;;;;;3.33;1.80;;;3.60;99.90;;;;;;4982360;28;20938;-83
2023/11/27 08:53:07;;;;;;;2.20;2.00;;;3.60;99.90;;;;;;4998792;28;20035;-82
2023/11/27 08:55:33;;;;;;;3.28;2.30;;;3.60;99.90;;;;;;4981147;28;20034;-83
2023/11/27 08:58:03;;;;;;;3.17;2.45;;;3.60;99.90;;;;;;4996425;28;20150;-83
2023/11/27 09:00:28;;;;;;;3.72;1.83;;;3.60;99.90;;;;;;4999857;28;20401;-83
2023/11/27 09:02:58;;;;;;;3.13;1.55;;;3.60;99.90;;;;;;4996257;28;20103;-81
2023/11/27 09:05:24;;;;;;;2.15;1.75;;;3.50;99.90;;;;;;4999069;28;20839;-81
2023/11/27 09:07:53;;;;;;;2.40;1.88;;;3.60;99.90;;;;;;4994279;28;20069;-82
2023/11/27 09:10:20;;;;;;;5.85;2.10;;;3.60;99.90;;;;;;4996666;28;20060;-83
2023/11/27 09:12:46;;;;;;;2.97;1.92;;;3.50;99.90;;;;;;4997008;28;20034;-83
2023/11/27 09:15:12;;;;;;;1.88;1.35;;;3.50;99.90;;;;;;5011571;28;20102;-79
2023/11/27 09:17:38;;;;;;;2.72;1.75;;;3.60;99.90;;;;;;4999082;28;20113;-80
2023/11/27 09:20:05;;;;;;;3.22;2.20;;;3.60;99.90;;;;;;4978272;28;20513;-81
2023/11/27 09:22:32;;;;;;;2.47;2.00;;;3.50;99.90;;;;;;4999489;28;20034;-79
2023/11/27 09:24:57;;;;;;;2.25;1.48;;;3.50;99.90;;;;;;4981430;28;20557;-79
2023/11/27 09:27:23;;;;;;;3.05;2.42;;;3.50;99.90;;;;;;4985655;28;20045;-79
2023/11/27 09:29:49;;;;;;;3.53;2.28;;;3.50;99.90;;;;;;5013452;28;20057;-79
2023/11/27 09:32:14;;;;;;;2.40;1.55;;;3.50;99.90;;;;;;4981395;28;20033;-84
2023/11/27 09:34:40;;;;;;;2.80;2.45;;;3.50;99.90;;;;;;4981469;28;20034;-81
2023/11/27 09:37:06;;;;;;;2.85;1.92;;;3.50;99.90;;;;;;5000131;28;20041;-79
2023/11/27 09:39:32;;;;;;;1.95;1.25;;;3.60;99.90;;;;;;4982416;28;20033;-83
2023/11/27 09:41:58;;;;;;;3.78;1.73;;;3.50;99.90;;;;;;4980857;28;20035;-81
2023/11/27 09:44:24;;;;;;;2.17;1.25;;;3.40;99.90;;;;;;4970443;28;20072;-80
2023/11/27 09:46:50;;;;;;;2.80;1.35;;;3.50;99.90;;;;;;4983929;28;20076;-82
2023/11/27 09:49:19;;;;;;;2.85;1.70;;;3.50;99.90;;;;;;4999174;28;20464;-81
2023/11/27 09:51:46;;;;;;;2.05;1.20;;;3.40;99.90;;;;;;4970172;28;20034;-81
2023/11/27 09:54:12;;;;;;;4.00;1.42;;;3.50;99.90;;;;;;4984968;28;20042;-82
2023/11/27 09:56:38;;;;;;;1.88;1.77;;;3.50;99.90;;;;;;4960138;28;20402;-82
2023/11/27 09:59:03;;;;;;;3.17;1.42;;;3.40;99.90;;;;;;4962834;28;20029;-81
2023/11/27 10:01:29;;;;;;;2.50;1.58;;;3.50;99.90;;;;;;4969358;28;20026;-81
2023/11/27 10:03:58;;;;;;;1.60;0.68;;;3.40;99.90;;;;;;4984309;28;20088;-80
2023/11/27 10:06:35;;;;;;;1.48;1.25;;;3.40;99.90;;;;;;4981742;28;20137;-82
2023/11/27 10:09:07;;;;;;;1.38;0.98;;;3.40;99.90;;;;;;4996951;28;20088;-83
2023/11/27 10:11:33;;;;;;;1.48;1.17;;;3.40;99.90;;;;;;4980580;28;20033;-81
2023/11/27 10:14:05;;;;;;;6.43;1.02;;;3.40;99.90;;;;;;4995986;28;20121;-81
2023/11/27 10:16:36;;;;;;;0.50;0.50;;;3.40;99.90;;;;;;4995084;28;20046;-83
2023/11/27 10:19:06;;;;;;;0.85;0.63;;;3.50;99.90;;;;;;4979862;28;20049;-77
2023/11/27 10:21:36;;;;;;;1.58;0.95;;;3.50;99.90;;;;;;5002254;28;20041;-77
2023/11/27 10:24:08;;;;;;;0.85;0.68;;;3.40;99.90;;;;;;4994907;28;20053;-76
2023/11/27 10:26:34;;;;;;;0.77;0.55;;;3.40;99.90;;;;;;4984241;28;20164;-76
2023/11/27 10:28:59;;;;;;;1.15;0.70;;;3.40;99.90;;;;;;4994499;28;20046;-77
2023/11/27 10:31:26;;;;;;;2.22;1.00;;;3.40;99.90;;;;;;4960719;28;20084;-76
2023/11/27 10:33:52;;;;;;;1.90;0.90;;;3.50;99.90;;;;;;4980258;28;20478;-76
2023/11/27 10:36:23;;;;;;;1.65;1.00;;;3.30;99.90;;;;;;4995421;28;20034;-77
2023/11/27 10:39:14;;;;;;;1.33;1.08;;;3.50;99.90;;;;;;4993852;28;20057;-78
2023/11/27 10:41:42;;;;;;;0.60;0.60;;;3.50;99.90;;;;;;4992724;28;20085;-77
2023/11/27 10:44:08;;;;;;;1.20;0.93;;;3.50;99.90;;;;;;4987033;28;20455;-77
2023/11/27 10:46:35;;;;;;;2.60;1.08;;;3.50;99.90;;;;;;5008614;28;20041;-76
2023/11/27 10:49:01;;;;;;;1.33;0.75;;;3.50;99.90;;;;;;5004789;28;20077;-76
2023/11/27 10:51:31;;;;;;;1.90;0.65;;;3.60;99.90;;;;;;4981756;28;20041;-76
2023/11/27 10:53:58;;;;;;;1.02;0.90;;;3.60;99.90;;;;;;4982766;28;20081;-77
2023/11/27 10:56:24;;;;;;;2.83;0.77;;;3.60;99.90;;;;;;4996376;28;20036;-77
2023/11/27 10:58:50;;;;;;;2.83;0.90;;;3.50;99.90;;;;;;4966320;28;20042;-76
2023/11/27 11:01:16;;;;;;;2.42;0.95;;;3.50;99.90;;;;;;4971318;28;20027;-77
2023/11/27 11:03:42;;;;;;;1.30;0.82;;;3.50;99.90;;;;;;4992564;28;20034;-77
2023/11/27 11:06:08;;;;;;;0.93;0.63;;;3.50;99.90;;;;;;4992277;28;20066;-77
2023/11/27 11:08:34;;;;;;;0.93;0.82;;;3.50;99.90;;;;;;4994447;28;20189;-76
2023/11/27 11:11:06;;;;;;;1.30;0.70;;;3.50;99.90;;;;;;4996308;28;20034;-76
2023/11/27 11:13:31;;;;;;;1.15;1.05;;;3.50;99.90;;;;;;4985124;28;20038;-76
2023/11/27 11:16:14;;;;;;;0.90;0.75;;;3.50;99.90;;;;;;4996230;28;20057;-77
2023/11/27 11:18:57;;;;;;;1.20;0.73;;;3.50;99.90;;;;;;4997367;28;20088;-76
2023/11/27 11:21:29;;;;;;;0.90;0.70;;;3.50;99.90;;;;;;5003207;28;20042;-76
2023/11/27 11:24:02;;;;;;;1.23;1.10;;;3.50;99.90;;;;;;5013624;28;20046;-76
2023/11/27 11:26:40;;;;;;;1.83;1.33;;;3.50;99.90;;;;;;5000205;28;20551;-76
2023/11/27 11:29:14;;;;;;;1.88;0.90;;;3.50;99.90;;;;;;4982531;28;20030;-76
2023/11/27 11:31:47;;;;;;;0.90;0.80;;;3.50;99.90;;;;;;5000891;28;20438;-77
2023/11/27 11:34:20;;;;;;;0.88;0.70;;;3.50;99.90;;;;;;4983013;28;20088;-77
2023/11/27 11:36:47;;;;;;;0.90;0.75;;;3.50;99.90;;;;;;4964432;28;20037;-76
2023/11/27 11:39:16;;;;;;;0.98;0.75;;;3.60;99.90;;;;;;4980531;28;20030;-77
2023/11/27 11:41:42;;;;;;;1.17;0.80;;;3.50;99.90;;;;;;4973769;28;20050;-76
2023/11/27 11:44:16;;;;;;;2.08;1.17;;;3.50;99.90;;;;;;4999667;28;20070;-77
2023/11/27 11:46:42;;;;;;;1.30;1.00;;;3.50;99.90;;;;;;4971230;28;20034;-77
2023/11/27 11:49:09;;;;;;;1.30;0.70;;;3.50;99.90;;;;;;4997730;28;20198;-76
2023/11/27 11:51:35;;;;;;;0.88;0.88;;;3.60;99.90;;;;;;4996560;28;20556;-77
2023/11/27 11:54:01;;;;;;;2.40;1.05;;;3.60;99.90;;;;;;5014501;28;20459;-77
2023/11/27 11:56:27;;;;;;;0.98;0.77;;;3.50;99.90;;;;;;4976402;28;20109;-76
2023/11/27 11:58:56;;;;;;;1.20;1.10;;;3.50;99.90;;;;;;4973306;28;20034;-76
2023/11/27 12:01:25;;;;;;;1.63;0.93;;;3.50;99.90;;;;;;4999528;28;20026;-77
2023/11/27 12:03:51;;;;;;;1.60;1.10;;;3.50;99.90;;;;;;4992537;28;20250;-77
2023/11/27 12:06:17;;;;;;;0.93;0.57;;;3.50;99.90;;;;;;4982799;28;20034;-77
2023/11/27 12:08:44;;;;;;;1.40;1.02;;;3.60;99.90;;;;;;4983604;28;20026;-77
2023/11/27 12:11:11;;;;;;;2.08;1.15;;;3.50;99.90;;;;;;4992052;28;20120;-77
2023/11/27 12:13:37;;;;;;;0.75;0.75;;;3.60;99.90;;;;;;4966344;28;20383;-77
2023/11/27 12:16:12;;;;;;;1.95;1.10;;;3.60;99.90;;;;;;4986389;28;20026;-77
2023/11/27 12:18:42;;;;;;;0.75;0.75;;;3.60;99.90;;;;;;4969261;28;20030;-77
2023/11/27 12:21:11;;;;;;;1.73;0.98;;;3.60;99.90;;;;;;4991577;28;20030;-77
2023/11/27 12:23:38;;;;;;;0.77;0.75;;;3.60;99.90;;;;;;4965897;28;20034;-78
2023/11/27 12:26:09;;;;;;;2.25;1.33;;;3.60;99.90;;;;;;5000951;28;20050;-78
2023/11/27 12:28:36;;;;;;;2.33;0.77;;;3.60;99.90;;;;;;4969061;28;20040;-78
2023/11/27 12:31:04;;;;;;;1.10;0.95;;;3.60;99.90;;;;;;4964034;28;20037;-78
2023/11/27 12:33:29;;;;;;;1.95;1.50;;;3.70;99.90;;;;;;5014177;28;20414;-77
2023/11/27 12:35:55;;;;;;;2.08;1.20;;;3.70;99.90;;;;;;4988250;28;20512;-77
2023/11/27 12:38:20;;;;;;;2.08;1.27;;;3.70;99.90;;;;;;4996586;28;20033;-78
2023/11/27 12:40:49;;;;;;;2.05;0.82;;;3.80;99.90;;;;;;4998278;28;20021;-77
2023/11/27 12:43:18;;;;;;;1.45;1.00;;;3.80;99.90;;;;;;4953785;28;20034;-77
2023/11/27 12:45:44;;;;;;;0.70;0.70;;;3.80;99.90;;;;;;4973398;28;20034;-77
2023/11/27 12:48:10;;;;;;;3.75;1.23;;;3.70;99.90;;;;;;4304268;28;10000536;-78
2023/11/27 12:50:39;;;;;;;2.58;0.90;;;3.80;99.90;;;;;;4974482;28;20081;-77